EJA816 KCMH-KMSY
Flight info
| Callsign | EJA816 |
|---|---|
| Flight time | 2h 17m |
| Altitude | 40000 |
| Route | POBSE OHIOS EWO OTB MCB TRSSH1 |
| Aircraft | CL60/M-SADE3FGHIJ3J4J7P2RWXY/HB1D1 |
Departure
| Time | 2026-05-09 01:42 |
|---|---|
| Airport | John Glenn Columbus International Airport (KCMH) |
Arrival
| Time | 2026-05-09 04:00 |
|---|---|
| Airport | Louis Armstrong New Orleans International Airport (KMSY) |
| Time | Latitude | Longitude | Altitude | Speed | Heading |
|---|---|---|---|---|---|
| 2026-05-09 00:59 | 40.00638 | -82.89975 | 817 ft | 0 kts | 94° |
| 2026-05-09 01:00 | 40.00607 | -82.89916 | 817 ft | 0 kts | 94° |
| 2026-05-09 01:32 | 40.00606 | -82.89897 | 816 ft | 1 kts | 94° |
| 2026-05-09 01:32 | 40.00606 | -82.89896 | 816 ft | 0 kts | 95° |
| 2026-05-09 01:33 | 40.00606 | -82.89897 | 816 ft | 0 kts | 95° |
| 2026-05-09 01:34 | 40.00598 | -82.89882 | 816 ft | 8 kts | 149° |
| 2026-05-09 01:34 | 40.00527 | -82.89836 | 816 ft | 13 kts | 141° |
| 2026-05-09 01:34 | 40.00493 | -82.89796 | 816 ft | 3 kts | 137° |
| 2026-05-09 01:34 | 40.00458 | -82.89760 | 816 ft | 9 kts | 142° |
| 2026-05-09 01:35 | 40.00380 | -82.89738 | 815 ft | 11 kts | 142° |
| 2026-05-09 01:35 | 40.00351 | -82.89709 | 815 ft | 0 kts | 176° |
| 2026-05-09 01:35 | 40.00347 | -82.89709 | 815 ft | 0 kts | 182° |
| 2026-05-09 01:37 | 40.00344 | -82.89710 | 815 ft | 5 kts | 182° |
| 2026-05-09 01:38 | 40.00258 | -82.89728 | 815 ft | 15 kts | 224° |
| 2026-05-09 01:38 | 40.00166 | -82.89728 | 815 ft | 17 kts | 102° |
| 2026-05-09 01:38 | 40.00157 | -82.89562 | 815 ft | 19 kts | 94° |
| 2026-05-09 01:38 | 40.00146 | -82.89373 | 815 ft | 21 kts | 94° |
| 2026-05-09 01:39 | 40.00134 | -82.89167 | 815 ft | 23 kts | 94° |
| 2026-05-09 01:39 | 40.00120 | -82.88942 | 815 ft | 25 kts | 92° |
| 2026-05-09 01:39 | 40.00107 | -82.88696 | 814 ft | 28 kts | 94° |
| 2026-05-09 01:39 | 40.00092 | -82.88434 | 812 ft | 30 kts | 93° |
| 2026-05-09 01:40 | 40.00077 | -82.88197 | 811 ft | 23 kts | 94° |
| 2026-05-09 01:40 | 40.00067 | -82.88025 | 808 ft | 5 kts | 93° |
| 2026-05-09 01:40 | 40.00065 | -82.87964 | 808 ft | 4 kts | 77° |
| 2026-05-09 01:40 | 40.00077 | -82.87942 | 808 ft | 0 kts | 30° |
| 2026-05-09 01:41 | 40.00095 | -82.87938 | 808 ft | 8 kts | 6° |
| 2026-05-09 01:41 | 40.00151 | -82.87957 | 807 ft | 7 kts | 300° |
| 2026-05-09 01:41 | 40.00165 | -82.88008 | 807 ft | 0 kts | 275° |
| 2026-05-09 01:42 | 40.00166 | -82.88009 | 807 ft | 0 kts | 275° |
| 2026-05-09 01:42 | 40.00192 | -82.88438 | 812 ft | 101 kts | 272° |
| 2026-05-09 01:42 | 40.00266 | -82.89738 | 923 ft | 174 kts | 274° |
| 2026-05-09 01:42 | 40.00356 | -82.91370 | 1810 ft | 189 kts | 275° |
| 2026-05-09 01:43 | 40.00433 | -82.92824 | 3534 ft | 159 kts | 271° |
| 2026-05-09 01:43 | 40.00547 | -82.94338 | 4158 ft | 187 kts | 272° |
| 2026-05-09 01:43 | 40.00704 | -82.96096 | 4523 ft | 198 kts | 272° |
| 2026-05-09 01:43 | 40.00866 | -82.97877 | 4744 ft | 196 kts | 272° |
| 2026-05-09 01:44 | 40.01040 | -82.99658 | 4871 ft | 195 kts | 272° |
| 2026-05-09 01:44 | 40.01212 | -83.01425 | 4946 ft | 195 kts | 272° |
| 2026-05-09 01:44 | 40.01386 | -83.03155 | 4994 ft | 198 kts | 273° |
| 2026-05-09 01:44 | 40.01548 | -83.05044 | 5721 ft | 212 kts | 271° |
| 2026-05-09 01:45 | 40.01222 | -83.06692 | 7153 ft | 194 kts | 238° |
| 2026-05-09 01:45 | 40.00327 | -83.07959 | 8388 ft | 201 kts | 220° |
| 2026-05-09 01:45 | 39.99086 | -83.08736 | 9635 ft | 210 kts | 200° |
| 2026-05-09 01:45 | 39.97606 | -83.08768 | 10766 ft | 230 kts | 171° |
| 2026-05-09 01:46 | 39.96138 | -83.07748 | 11865 ft | 248 kts | 152° |
| 2026-05-09 01:46 | 39.94721 | -83.06441 | 12934 ft | 255 kts | 151° |
| 2026-05-09 01:46 | 39.93281 | -83.05121 | 14010 ft | 260 kts | 151° |
| 2026-05-09 01:46 | 39.91822 | -83.03785 | 15087 ft | 262 kts | 152° |
| 2026-05-09 01:47 | 39.90338 | -83.02425 | 16153 ft | 261 kts | 152° |
| 2026-05-09 01:47 | 39.88872 | -83.01083 | 17075 ft | 262 kts | 153° |
| 2026-05-09 01:47 | 39.87329 | -82.99686 | 17612 ft | 281 kts | 153° |
| 2026-05-09 01:47 | 39.85663 | -82.98182 | 18066 ft | 302 kts | 152° |
| 2026-05-09 01:48 | 39.83876 | -82.96565 | 18518 ft | 323 kts | 152° |
| 2026-05-09 01:48 | 39.81968 | -82.94837 | 18969 ft | 342 kts | 152° |
| 2026-05-09 01:48 | 39.79974 | -82.93031 | 19408 ft | 360 kts | 152° |
| 2026-05-09 01:48 | 39.77847 | -82.91103 | 19857 ft | 377 kts | 151° |
| 2026-05-09 01:49 | 39.75651 | -82.89114 | 20304 ft | 392 kts | 151° |
| 2026-05-09 01:49 | 39.73401 | -82.87075 | 20744 ft | 404 kts | 151° |
| 2026-05-09 01:49 | 39.71062 | -82.84953 | 21217 ft | 407 kts | 151° |
| 2026-05-09 01:49 | 39.68762 | -82.82864 | 21672 ft | 405 kts | 152° |
| 2026-05-09 01:50 | 39.66445 | -82.80765 | 22127 ft | 405 kts | 152° |
| 2026-05-09 01:50 | 39.64136 | -82.78675 | 22575 ft | 407 kts | 152° |
| 2026-05-09 01:50 | 39.61787 | -82.76554 | 22862 ft | 413 kts | 152° |
| 2026-05-09 01:50 | 39.59438 | -82.74435 | 22912 ft | 414 kts | 152° |
| 2026-05-09 01:51 | 39.57069 | -82.72295 | 22907 ft | 412 kts | 152° |
| 2026-05-09 01:51 | 39.54726 | -82.70183 | 22910 ft | 412 kts | 152° |
| 2026-05-09 01:51 | 39.52378 | -82.68069 | 22902 ft | 412 kts | 152° |
| 2026-05-09 01:51 | 39.49996 | -82.65926 | 22902 ft | 412 kts | 152° |
| 2026-05-09 01:52 | 39.47607 | -82.63809 | 23036 ft | 421 kts | 155° |
| 2026-05-09 01:52 | 39.45018 | -82.62286 | 23742 ft | 407 kts | 172° |
| 2026-05-09 01:52 | 39.42260 | -82.61736 | 24563 ft | 390 kts | 188° |
| 2026-05-09 01:52 | 39.39574 | -82.61916 | 25300 ft | 384 kts | 194° |
| 2026-05-09 01:53 | 39.36871 | -82.62204 | 26003 ft | 387 kts | 194° |
| 2026-05-09 01:53 | 39.34168 | -82.62485 | 26562 ft | 392 kts | 194° |
| 2026-05-09 01:53 | 39.31399 | -82.62772 | 27188 ft | 394 kts | 194° |
| 2026-05-09 01:53 | 39.28633 | -82.63055 | 27733 ft | 398 kts | 194° |
| 2026-05-09 01:54 | 39.25858 | -82.63341 | 28270 ft | 401 kts | 194° |
| 2026-05-09 01:54 | 39.23075 | -82.63626 | 28813 ft | 404 kts | 195° |
| 2026-05-09 01:54 | 39.20254 | -82.63913 | 29366 ft | 405 kts | 194° |
| 2026-05-09 01:54 | 39.17400 | -82.64205 | 29844 ft | 409 kts | 195° |
| 2026-05-09 01:55 | 39.14565 | -82.64494 | 30287 ft | 412 kts | 194° |
| 2026-05-09 01:55 | 39.11693 | -82.64787 | 30628 ft | 416 kts | 195° |
| 2026-05-09 01:55 | 39.08827 | -82.65075 | 31134 ft | 415 kts | 195° |
| 2026-05-09 01:55 | 39.05958 | -82.65364 | 31591 ft | 415 kts | 195° |
| 2026-05-09 01:56 | 39.03079 | -82.65653 | 32046 ft | 414 kts | 196° |
| 2026-05-09 01:56 | 39.00184 | -82.65942 | 32492 ft | 412 kts | 197° |
| 2026-05-09 01:56 | 38.97311 | -82.66232 | 32870 ft | 413 kts | 197° |
| 2026-05-09 01:56 | 38.94466 | -82.66517 | 33258 ft | 413 kts | 197° |
| 2026-05-09 01:57 | 38.91634 | -82.66850 | 33562 ft | 409 kts | 200° |
| 2026-05-09 01:57 | 38.88855 | -82.67603 | 33864 ft | 396 kts | 208° |
| 2026-05-09 01:57 | 38.86322 | -82.68810 | 34257 ft | 382 kts | 216° |
| 2026-05-09 01:57 | 38.84048 | -82.70380 | 34629 ft | 369 kts | 223° |
| 2026-05-09 01:58 | 38.81999 | -82.72289 | 34986 ft | 359 kts | 230° |
| 2026-05-09 01:58 | 38.80222 | -82.74454 | 35316 ft | 350 kts | 236° |
| 2026-05-09 01:58 | 38.78712 | -82.76833 | 35616 ft | 343 kts | 242° |
| 2026-05-09 01:58 | 38.77456 | -82.79421 | 35952 ft | 338 kts | 246° |
| 2026-05-09 01:59 | 38.76427 | -82.82066 | 36317 ft | 336 kts | 249° |
| 2026-05-09 01:59 | 38.75403 | -82.84763 | 36691 ft | 334 kts | 248° |
| 2026-05-09 01:59 | 38.74397 | -82.87406 | 37051 ft | 333 kts | 249° |
| 2026-05-09 01:59 | 38.73379 | -82.90080 | 37392 ft | 332 kts | 248° |
| 2026-05-09 02:00 | 38.72381 | -82.92699 | 37700 ft | 331 kts | 249° |
| 2026-05-09 02:00 | 38.71368 | -82.95358 | 37949 ft | 330 kts | 249° |
| 2026-05-09 02:00 | 38.70370 | -82.97976 | 38168 ft | 330 kts | 249° |
| 2026-05-09 02:00 | 38.69360 | -83.00623 | 38384 ft | 330 kts | 249° |
| 2026-05-09 02:01 | 38.68350 | -83.03271 | 38577 ft | 330 kts | 248° |
| 2026-05-09 02:01 | 38.67350 | -83.05888 | 38754 ft | 331 kts | 249° |
| 2026-05-09 02:01 | 38.66349 | -83.08508 | 38983 ft | 330 kts | 249° |
| 2026-05-09 02:01 | 38.65343 | -83.11140 | 39163 ft | 330 kts | 249° |
| 2026-05-09 02:02 | 38.64330 | -83.13789 | 39317 ft | 331 kts | 249° |
| 2026-05-09 02:02 | 38.63329 | -83.16405 | 39440 ft | 332 kts | 248° |
| 2026-05-09 02:02 | 38.62307 | -83.19072 | 39585 ft | 332 kts | 249° |
| 2026-05-09 02:02 | 38.61296 | -83.21710 | 39697 ft | 333 kts | 249° |
| 2026-05-09 02:03 | 38.59249 | -83.27042 | 39899 ft | 335 kts | 249° |
| 2026-05-09 02:03 | 38.57192 | -83.32393 | 39931 ft | 337 kts | 249° |
| 2026-05-09 02:04 | 38.55130 | -83.37743 | 39929 ft | 336 kts | 249° |
| 2026-05-09 02:04 | 38.53062 | -83.43102 | 39923 ft | 335 kts | 249° |
| 2026-05-09 02:05 | 38.51016 | -83.48395 | 39929 ft | 335 kts | 248° |
| 2026-05-09 02:05 | 38.48959 | -83.53709 | 39932 ft | 335 kts | 248° |
| 2026-05-09 02:06 | 38.46896 | -83.59032 | 39929 ft | 335 kts | 249° |
| 2026-05-09 02:07 | 38.43798 | -83.67005 | 39929 ft | 336 kts | 249° |
| 2026-05-09 02:07 | 38.41717 | -83.72349 | 39927 ft | 336 kts | 248° |
| 2026-05-09 02:08 | 38.39634 | -83.77689 | 39925 ft | 338 kts | 248° |
| 2026-05-09 02:08 | 38.37533 | -83.83070 | 39926 ft | 343 kts | 247° |
| 2026-05-09 02:09 | 38.35397 | -83.88530 | 39928 ft | 347 kts | 248° |
| 2026-05-09 02:09 | 38.33247 | -83.94014 | 39922 ft | 350 kts | 248° |
| 2026-05-09 02:10 | 38.31064 | -83.99569 | 39922 ft | 352 kts | 248° |
| 2026-05-09 02:10 | 38.28873 | -84.05135 | 39925 ft | 352 kts | 248° |
| 2026-05-09 02:11 | 38.26691 | -84.10670 | 39920 ft | 351 kts | 248° |
| 2026-05-09 02:11 | 38.24496 | -84.16229 | 39921 ft | 352 kts | 248° |
| 2026-05-09 02:12 | 38.22302 | -84.21776 | 39917 ft | 352 kts | 247° |
| 2026-05-09 02:12 | 38.20113 | -84.27302 | 39915 ft | 350 kts | 247° |
| 2026-05-09 02:13 | 38.17924 | -84.32815 | 39917 ft | 350 kts | 248° |
| 2026-05-09 02:13 | 38.15741 | -84.38305 | 39926 ft | 350 kts | 247° |
| 2026-05-09 02:14 | 38.13546 | -84.43817 | 39924 ft | 350 kts | 248° |
| 2026-05-09 02:14 | 38.11345 | -84.49332 | 39925 ft | 349 kts | 247° |
| 2026-05-09 02:15 | 38.09154 | -84.54812 | 39930 ft | 349 kts | 248° |
| 2026-05-09 02:15 | 38.06955 | -84.60303 | 39929 ft | 349 kts | 247° |
| 2026-05-09 02:16 | 38.04755 | -84.65788 | 39924 ft | 350 kts | 247° |
| 2026-05-09 02:16 | 38.02539 | -84.71301 | 39926 ft | 352 kts | 247° |
| 2026-05-09 02:17 | 38.00320 | -84.76812 | 39926 ft | 351 kts | 247° |
| 2026-05-09 02:17 | 37.98100 | -84.82317 | 39915 ft | 350 kts | 246° |
| 2026-05-09 02:18 | 37.95892 | -84.87781 | 39919 ft | 350 kts | 247° |
| 2026-05-09 02:18 | 37.93679 | -84.93249 | 39908 ft | 350 kts | 247° |
| 2026-05-09 02:19 | 37.91458 | -84.98727 | 39913 ft | 350 kts | 247° |
| 2026-05-09 02:19 | 37.89231 | -85.04210 | 39908 ft | 350 kts | 247° |
| 2026-05-09 02:20 | 37.87000 | -85.09692 | 39907 ft | 349 kts | 247° |
| 2026-05-09 02:20 | 37.84780 | -85.15138 | 39907 ft | 349 kts | 247° |
| 2026-05-09 02:21 | 37.82562 | -85.20572 | 39910 ft | 350 kts | 247° |
| 2026-05-09 02:21 | 37.80327 | -85.26036 | 39913 ft | 350 kts | 247° |
| 2026-05-09 02:22 | 37.78079 | -85.31524 | 39915 ft | 351 kts | 246° |
| 2026-05-09 02:22 | 37.75839 | -85.36980 | 39918 ft | 351 kts | 246° |
| 2026-05-09 02:23 | 37.73593 | -85.42441 | 39916 ft | 352 kts | 247° |
| 2026-05-09 02:23 | 37.71345 | -85.47900 | 39910 ft | 352 kts | 247° |
| 2026-05-09 02:24 | 37.69078 | -85.53393 | 39925 ft | 352 kts | 247° |
| 2026-05-09 02:24 | 37.66827 | -85.58838 | 39915 ft | 351 kts | 247° |
| 2026-05-09 02:25 | 37.64546 | -85.64305 | 39913 ft | 353 kts | 245° |
| 2026-05-09 02:25 | 37.61424 | -85.69221 | 39916 ft | 367 kts | 229° |
| 2026-05-09 02:26 | 37.57384 | -85.73221 | 39912 ft | 370 kts | 227° |
| 2026-05-09 02:26 | 37.53303 | -85.77170 | 39912 ft | 370 kts | 226° |
| 2026-05-09 02:27 | 37.49232 | -85.81102 | 39922 ft | 369 kts | 226° |
| 2026-05-09 02:27 | 37.45160 | -85.85029 | 39914 ft | 369 kts | 226° |
| 2026-05-09 02:28 | 37.41106 | -85.88931 | 39923 ft | 368 kts | 226° |
| 2026-05-09 02:28 | 37.37056 | -85.92825 | 39923 ft | 367 kts | 226° |
| 2026-05-09 02:29 | 37.33016 | -85.96703 | 39924 ft | 367 kts | 226° |
| 2026-05-09 02:29 | 37.28957 | -86.00594 | 39922 ft | 368 kts | 227° |
| 2026-05-09 02:30 | 37.24871 | -86.04503 | 39923 ft | 368 kts | 226° |
| 2026-05-09 02:30 | 37.20810 | -86.08384 | 39924 ft | 368 kts | 227° |
| 2026-05-09 02:31 | 37.16749 | -86.12258 | 39919 ft | 367 kts | 226° |
| 2026-05-09 02:31 | 37.12707 | -86.16109 | 39923 ft | 366 kts | 226° |
| 2026-05-09 02:32 | 37.08656 | -86.19963 | 39920 ft | 366 kts | 226° |
| 2026-05-09 02:32 | 37.04584 | -86.23831 | 39926 ft | 366 kts | 226° |
| 2026-05-09 02:33 | 37.00550 | -86.27657 | 39921 ft | 366 kts | 227° |
| 2026-05-09 02:33 | 36.96489 | -86.31506 | 39923 ft | 367 kts | 227° |
| 2026-05-09 02:34 | 36.92405 | -86.35371 | 39928 ft | 368 kts | 227° |
| 2026-05-09 02:34 | 36.88314 | -86.39235 | 39923 ft | 368 kts | 226° |
| 2026-05-09 02:35 | 36.84228 | -86.43091 | 39925 ft | 369 kts | 226° |
| 2026-05-09 02:35 | 36.80125 | -86.46955 | 39920 ft | 368 kts | 227° |
| 2026-05-09 02:36 | 36.76043 | -86.50795 | 39920 ft | 367 kts | 226° |
| 2026-05-09 02:36 | 36.71967 | -86.54623 | 39918 ft | 367 kts | 226° |
| 2026-05-09 02:37 | 36.67903 | -86.58436 | 39921 ft | 367 kts | 227° |
| 2026-05-09 02:37 | 36.63830 | -86.62251 | 39922 ft | 367 kts | 226° |
| 2026-05-09 02:38 | 36.59713 | -86.66104 | 39923 ft | 368 kts | 226° |
| 2026-05-09 02:38 | 36.55622 | -86.69927 | 39927 ft | 370 kts | 226° |
| 2026-05-09 02:39 | 36.51524 | -86.73751 | 39922 ft | 370 kts | 226° |
| 2026-05-09 02:39 | 36.47418 | -86.77575 | 39926 ft | 369 kts | 226° |
| 2026-05-09 02:40 | 36.43309 | -86.81399 | 39926 ft | 369 kts | 226° |
| 2026-05-09 02:40 | 36.39186 | -86.85229 | 39926 ft | 370 kts | 226° |
| 2026-05-09 02:41 | 36.35078 | -86.89041 | 39940 ft | 370 kts | 226° |
| 2026-05-09 02:41 | 36.30949 | -86.92868 | 39934 ft | 370 kts | 226° |
| 2026-05-09 02:42 | 36.26851 | -86.96658 | 39933 ft | 369 kts | 226° |
| 2026-05-09 02:42 | 36.22724 | -87.00472 | 39940 ft | 369 kts | 226° |
| 2026-05-09 02:43 | 36.18630 | -87.04252 | 39945 ft | 369 kts | 226° |
| 2026-05-09 02:43 | 36.14502 | -87.08056 | 39940 ft | 370 kts | 226° |
| 2026-05-09 02:44 | 36.10389 | -87.11842 | 39942 ft | 370 kts | 226° |
| 2026-05-09 02:44 | 36.06277 | -87.15621 | 39942 ft | 369 kts | 226° |
| 2026-05-09 02:45 | 36.02165 | -87.19395 | 39934 ft | 369 kts | 226° |
| 2026-05-09 02:45 | 35.98054 | -87.23163 | 39943 ft | 368 kts | 226° |
| 2026-05-09 02:46 | 35.93944 | -87.26925 | 39941 ft | 368 kts | 226° |
| 2026-05-09 02:46 | 35.89823 | -87.30693 | 39939 ft | 368 kts | 226° |
| 2026-05-09 02:47 | 35.85709 | -87.34450 | 39942 ft | 369 kts | 226° |
| 2026-05-09 02:47 | 35.81568 | -87.38226 | 39945 ft | 369 kts | 226° |
| 2026-05-09 02:48 | 35.77456 | -87.41970 | 39942 ft | 369 kts | 227° |
| 2026-05-09 02:48 | 35.73341 | -87.45712 | 39943 ft | 368 kts | 226° |
| 2026-05-09 02:49 | 35.69249 | -87.49428 | 39943 ft | 367 kts | 226° |
| 2026-05-09 02:49 | 35.65140 | -87.53149 | 39943 ft | 368 kts | 226° |
| 2026-05-09 02:50 | 35.61012 | -87.56881 | 39942 ft | 368 kts | 226° |
| 2026-05-09 02:50 | 35.56891 | -87.60603 | 39947 ft | 368 kts | 226° |
| 2026-05-09 02:51 | 35.52776 | -87.64317 | 39947 ft | 367 kts | 227° |
| 2026-05-09 02:51 | 35.48638 | -87.68047 | 39943 ft | 368 kts | 226° |
| 2026-05-09 02:52 | 35.44517 | -87.71757 | 39943 ft | 368 kts | 226° |
| 2026-05-09 02:52 | 35.40401 | -87.75460 | 39943 ft | 367 kts | 226° |
| 2026-05-09 02:53 | 35.36292 | -87.79151 | 39944 ft | 367 kts | 226° |
| 2026-05-09 02:53 | 35.32158 | -87.82861 | 39948 ft | 367 kts | 226° |
| 2026-05-09 02:54 | 35.28048 | -87.86544 | 39944 ft | 367 kts | 226° |
| 2026-05-09 02:54 | 35.23936 | -87.90225 | 39944 ft | 367 kts | 226° |
| 2026-05-09 02:55 | 35.19814 | -87.93913 | 39944 ft | 367 kts | 226° |
| 2026-05-09 02:55 | 35.15702 | -87.97586 | 39945 ft | 366 kts | 226° |
| 2026-05-09 02:56 | 35.11601 | -88.01238 | 39946 ft | 365 kts | 226° |
| 2026-05-09 02:56 | 35.07521 | -88.04866 | 39947 ft | 364 kts | 226° |
| 2026-05-09 02:57 | 35.03436 | -88.08497 | 39944 ft | 364 kts | 226° |
| 2026-05-09 02:57 | 34.99324 | -88.12149 | 39947 ft | 364 kts | 226° |
| 2026-05-09 02:58 | 34.95244 | -88.15765 | 39945 ft | 364 kts | 225° |
| 2026-05-09 02:58 | 34.91147 | -88.19389 | 39948 ft | 364 kts | 225° |
| 2026-05-09 02:59 | 34.87042 | -88.23019 | 39944 ft | 365 kts | 226° |
| 2026-05-09 02:59 | 34.82946 | -88.26637 | 39944 ft | 364 kts | 226° |
| 2026-05-09 03:00 | 34.78823 | -88.30275 | 39943 ft | 364 kts | 226° |
| 2026-05-09 03:00 | 34.74736 | -88.33877 | 39943 ft | 364 kts | 226° |
| 2026-05-09 03:01 | 34.70629 | -88.37492 | 39942 ft | 364 kts | 226° |
| 2026-05-09 03:01 | 34.66545 | -88.41084 | 39942 ft | 364 kts | 226° |
| 2026-05-09 03:02 | 34.62426 | -88.44703 | 39939 ft | 365 kts | 226° |
| 2026-05-09 03:02 | 34.58302 | -88.48320 | 39947 ft | 366 kts | 226° |
| 2026-05-09 03:03 | 34.54200 | -88.51913 | 39959 ft | 363 kts | 226° |
| 2026-05-09 03:03 | 34.50126 | -88.55476 | 39961 ft | 361 kts | 226° |
| 2026-05-09 03:04 | 34.46053 | -88.59035 | 39955 ft | 359 kts | 227° |
| 2026-05-09 03:04 | 34.42014 | -88.62561 | 39957 ft | 358 kts | 226° |
| 2026-05-09 03:05 | 34.37956 | -88.66102 | 39958 ft | 358 kts | 227° |
| 2026-05-09 03:05 | 34.33901 | -88.69640 | 39963 ft | 359 kts | 226° |
| 2026-05-09 03:06 | 34.29863 | -88.73156 | 39963 ft | 359 kts | 226° |
| 2026-05-09 03:06 | 34.25794 | -88.76695 | 39954 ft | 360 kts | 226° |
| 2026-05-09 03:07 | 34.21615 | -88.80060 | 39949 ft | 371 kts | 220° |
| 2026-05-09 03:07 | 34.16815 | -88.82619 | 39949 ft | 378 kts | 216° |
| 2026-05-09 03:08 | 34.11986 | -88.85107 | 39938 ft | 378 kts | 216° |
| 2026-05-09 03:08 | 34.07155 | -88.87597 | 39946 ft | 379 kts | 216° |
| 2026-05-09 03:09 | 34.02282 | -88.90106 | 39950 ft | 379 kts | 216° |
| 2026-05-09 03:09 | 33.97452 | -88.92593 | 39950 ft | 380 kts | 216° |
| 2026-05-09 03:10 | 33.92603 | -88.95086 | 39945 ft | 379 kts | 216° |
| 2026-05-09 03:10 | 33.87725 | -88.97591 | 39947 ft | 378 kts | 216° |
| 2026-05-09 03:11 | 33.82888 | -89.00079 | 39941 ft | 379 kts | 217° |
| 2026-05-09 03:11 | 33.78023 | -89.02584 | 39943 ft | 379 kts | 217° |
| 2026-05-09 03:12 | 33.73195 | -89.05066 | 39941 ft | 378 kts | 216° |
| 2026-05-09 03:12 | 33.68347 | -89.07553 | 39936 ft | 378 kts | 217° |
| 2026-05-09 03:13 | 33.61106 | -89.11259 | 39938 ft | 378 kts | 217° |
| 2026-05-09 03:13 | 33.56265 | -89.13732 | 39937 ft | 378 kts | 217° |
| 2026-05-09 03:14 | 33.51433 | -89.16197 | 39939 ft | 377 kts | 217° |
| 2026-05-09 03:14 | 33.46607 | -89.18655 | 39938 ft | 377 kts | 218° |
| 2026-05-09 03:15 | 33.41798 | -89.21102 | 39938 ft | 376 kts | 216° |
| 2026-05-09 03:15 | 33.36980 | -89.23549 | 39934 ft | 375 kts | 218° |
| 2026-05-09 03:16 | 33.32189 | -89.25980 | 39937 ft | 375 kts | 217° |
| 2026-05-09 03:16 | 33.27401 | -89.28407 | 39937 ft | 374 kts | 217° |
| 2026-05-09 03:17 | 33.22587 | -89.30844 | 39935 ft | 374 kts | 218° |
| 2026-05-09 03:17 | 33.17809 | -89.33260 | 39934 ft | 374 kts | 217° |
| 2026-05-09 03:18 | 33.13034 | -89.35673 | 39935 ft | 374 kts | 218° |
| 2026-05-09 03:18 | 33.08242 | -89.38090 | 39929 ft | 374 kts | 217° |
| 2026-05-09 03:19 | 33.03460 | -89.40498 | 39932 ft | 373 kts | 217° |
| 2026-05-09 03:19 | 32.98655 | -89.42916 | 39930 ft | 373 kts | 218° |
| 2026-05-09 03:20 | 32.93885 | -89.45313 | 39932 ft | 373 kts | 218° |
| 2026-05-09 03:20 | 32.89094 | -89.47719 | 39927 ft | 373 kts | 217° |
| 2026-05-09 03:21 | 32.84309 | -89.50120 | 39931 ft | 373 kts | 218° |
| 2026-05-09 03:21 | 32.79503 | -89.52527 | 39928 ft | 374 kts | 217° |
| 2026-05-09 03:22 | 32.74712 | -89.54924 | 39928 ft | 373 kts | 218° |
| 2026-05-09 03:22 | 32.69956 | -89.57301 | 39931 ft | 373 kts | 216° |
| 2026-05-09 03:23 | 32.65166 | -89.59692 | 39930 ft | 374 kts | 218° |
| 2026-05-09 03:23 | 32.60370 | -89.62083 | 39931 ft | 374 kts | 217° |
| 2026-05-09 03:24 | 32.55584 | -89.64467 | 39934 ft | 374 kts | 216° |
| 2026-05-09 03:24 | 32.50751 | -89.66872 | 39939 ft | 375 kts | 216° |
| 2026-05-09 03:25 | 32.45932 | -89.69267 | 39931 ft | 377 kts | 216° |
| 2026-05-09 03:25 | 32.41066 | -89.71684 | 39936 ft | 379 kts | 215° |
| 2026-05-09 03:26 | 32.36218 | -89.74087 | 39934 ft | 380 kts | 216° |
| 2026-05-09 03:26 | 32.31351 | -89.76496 | 39934 ft | 380 kts | 216° |
| 2026-05-09 03:27 | 32.26447 | -89.78921 | 39935 ft | 381 kts | 216° |
| 2026-05-09 03:27 | 32.21571 | -89.81327 | 39929 ft | 381 kts | 215° |
| 2026-05-09 03:28 | 32.16660 | -89.83747 | 39930 ft | 382 kts | 216° |
| 2026-05-09 03:28 | 32.11746 | -89.86166 | 39923 ft | 382 kts | 215° |
| 2026-05-09 03:29 | 32.09273 | -89.87382 | 39653 ft | 381 kts | 216° |
| 2026-05-09 03:29 | 32.06870 | -89.88558 | 39160 ft | 374 kts | 215° |
| 2026-05-09 03:29 | 32.04472 | -89.89731 | 38669 ft | 369 kts | 216° |
| 2026-05-09 03:29 | 32.02128 | -89.90880 | 38172 ft | 364 kts | 215° |
| 2026-05-09 03:30 | 31.99810 | -89.92015 | 37679 ft | 359 kts | 216° |
| 2026-05-09 03:30 | 31.97502 | -89.93146 | 37188 ft | 355 kts | 215° |
| 2026-05-09 03:30 | 31.95247 | -89.94250 | 36685 ft | 352 kts | 215° |
| 2026-05-09 03:30 | 31.92993 | -89.95355 | 36188 ft | 348 kts | 214° |
| 2026-05-09 03:31 | 31.90789 | -89.96435 | 35690 ft | 344 kts | 214° |
| 2026-05-09 03:31 | 31.88583 | -89.97515 | 35193 ft | 341 kts | 214° |
| 2026-05-09 03:31 | 31.86375 | -89.98598 | 34686 ft | 340 kts | 214° |
| 2026-05-09 03:31 | 31.84191 | -89.99671 | 34192 ft | 343 kts | 213° |
| 2026-05-09 03:32 | 31.81981 | -90.00757 | 33702 ft | 347 kts | 213° |
| 2026-05-09 03:32 | 31.79759 | -90.01847 | 33211 ft | 349 kts | 212° |
| 2026-05-09 03:32 | 31.77509 | -90.02947 | 32723 ft | 348 kts | 212° |
| 2026-05-09 03:32 | 31.75267 | -90.04042 | 32222 ft | 346 kts | 212° |
| 2026-05-09 03:33 | 31.73063 | -90.05116 | 31724 ft | 344 kts | 212° |
| 2026-05-09 03:33 | 31.70850 | -90.06197 | 31225 ft | 343 kts | 212° |
| 2026-05-09 03:33 | 31.68677 | -90.07257 | 30725 ft | 342 kts | 212° |
| 2026-05-09 03:33 | 31.66477 | -90.08329 | 30228 ft | 340 kts | 211° |
| 2026-05-09 03:34 | 31.64312 | -90.09383 | 29735 ft | 339 kts | 211° |
| 2026-05-09 03:34 | 31.62127 | -90.10448 | 29233 ft | 337 kts | 211° |
| 2026-05-09 03:34 | 31.59990 | -90.11487 | 28955 ft | 334 kts | 212° |
| 2026-05-09 03:34 | 31.57815 | -90.12547 | 28915 ft | 336 kts | 211° |
| 2026-05-09 03:35 | 31.53464 | -90.14667 | 28920 ft | 339 kts | 211° |
| 2026-05-09 03:35 | 31.49076 | -90.16800 | 28495 ft | 344 kts | 211° |
| 2026-05-09 03:36 | 31.46902 | -90.17853 | 28068 ft | 340 kts | 211° |
| 2026-05-09 03:36 | 31.44721 | -90.18909 | 27642 ft | 336 kts | 211° |
| 2026-05-09 03:36 | 31.42553 | -90.19958 | 27204 ft | 334 kts | 211° |
| 2026-05-09 03:36 | 31.40416 | -90.20994 | 26770 ft | 332 kts | 211° |
| 2026-05-09 03:37 | 31.38303 | -90.22017 | 26338 ft | 332 kts | 211° |
| 2026-05-09 03:37 | 31.36147 | -90.23061 | 25893 ft | 331 kts | 211° |
| 2026-05-09 03:37 | 31.34032 | -90.24084 | 25453 ft | 329 kts | 211° |
| 2026-05-09 03:37 | 31.31923 | -90.25092 | 25020 ft | 330 kts | 209° |
| 2026-05-09 03:38 | 31.29630 | -90.25695 | 24593 ft | 344 kts | 193° |
| 2026-05-09 03:38 | 31.27218 | -90.25618 | 24128 ft | 352 kts | 186° |
| 2026-05-09 03:38 | 31.24754 | -90.25427 | 23677 ft | 351 kts | 186° |
| 2026-05-09 03:38 | 31.22313 | -90.25245 | 23211 ft | 351 kts | 186° |
| 2026-05-09 03:39 | 31.19896 | -90.25065 | 22752 ft | 349 kts | 186° |
| 2026-05-09 03:39 | 31.17467 | -90.24884 | 22287 ft | 348 kts | 185° |
| 2026-05-09 03:39 | 31.15074 | -90.24706 | 21828 ft | 346 kts | 185° |
| 2026-05-09 03:39 | 31.12669 | -90.24526 | 21369 ft | 343 kts | 185° |
| 2026-05-09 03:40 | 31.10307 | -90.24351 | 20915 ft | 341 kts | 185° |
| 2026-05-09 03:40 | 31.07927 | -90.24174 | 20458 ft | 338 kts | 185° |
| 2026-05-09 03:40 | 31.05598 | -90.24001 | 20010 ft | 335 kts | 184° |
| 2026-05-09 03:40 | 31.03261 | -90.23827 | 19566 ft | 333 kts | 184° |
| 2026-05-09 03:41 | 31.00980 | -90.23659 | 19130 ft | 330 kts | 184° |
| 2026-05-09 03:41 | 30.98678 | -90.23489 | 18690 ft | 329 kts | 184° |
| 2026-05-09 03:41 | 30.96389 | -90.23320 | 18252 ft | 327 kts | 183° |
| 2026-05-09 03:41 | 30.94148 | -90.23154 | 17823 ft | 325 kts | 184° |
| 2026-05-09 03:42 | 30.91889 | -90.22989 | 17389 ft | 322 kts | 184° |
| 2026-05-09 03:42 | 30.89670 | -90.22826 | 16966 ft | 320 kts | 183° |
| 2026-05-09 03:42 | 30.87424 | -90.22662 | 16533 ft | 319 kts | 183° |
| 2026-05-09 03:42 | 30.85217 | -90.22501 | 16122 ft | 318 kts | 183° |
| 2026-05-09 03:43 | 30.83017 | -90.22342 | 15704 ft | 318 kts | 183° |
| 2026-05-09 03:43 | 30.80800 | -90.22181 | 15278 ft | 317 kts | 183° |
| 2026-05-09 03:43 | 30.78618 | -90.22021 | 14866 ft | 315 kts | 183° |
| 2026-05-09 03:43 | 30.76413 | -90.21860 | 14442 ft | 314 kts | 183° |
| 2026-05-09 03:44 | 30.74245 | -90.21703 | 14025 ft | 313 kts | 183° |
| 2026-05-09 03:44 | 30.72081 | -90.21545 | 13612 ft | 311 kts | 182° |
| 2026-05-09 03:44 | 30.69928 | -90.21389 | 13197 ft | 310 kts | 182° |
| 2026-05-09 03:44 | 30.67763 | -90.21232 | 12786 ft | 309 kts | 182° |
| 2026-05-09 03:45 | 30.65637 | -90.21077 | 12382 ft | 308 kts | 182° |
| 2026-05-09 03:45 | 30.63510 | -90.20922 | 11977 ft | 306 kts | 182° |
| 2026-05-09 03:45 | 30.61383 | -90.20768 | 11577 ft | 305 kts | 181° |
| 2026-05-09 03:45 | 30.59268 | -90.20614 | 11179 ft | 303 kts | 181° |
| 2026-05-09 03:46 | 30.57180 | -90.20461 | 10975 ft | 301 kts | 181° |
| 2026-05-09 03:46 | 30.55080 | -90.20309 | 10948 ft | 301 kts | 181° |
| 2026-05-09 03:46 | 30.52967 | -90.20154 | 10953 ft | 302 kts | 181° |
| 2026-05-09 03:46 | 30.50882 | -90.20002 | 10951 ft | 302 kts | 181° |
| 2026-05-09 03:47 | 30.48768 | -90.19848 | 10951 ft | 301 kts | 181° |
| 2026-05-09 03:47 | 30.46686 | -90.19695 | 10955 ft | 301 kts | 181° |
| 2026-05-09 03:47 | 30.44568 | -90.19543 | 10793 ft | 304 kts | 181° |
| 2026-05-09 03:47 | 30.42469 | -90.19390 | 10426 ft | 303 kts | 181° |
| 2026-05-09 03:48 | 30.40363 | -90.19237 | 10051 ft | 300 kts | 180° |
| 2026-05-09 03:48 | 30.38290 | -90.19086 | 9678 ft | 297 kts | 180° |
| 2026-05-09 03:48 | 30.36218 | -90.18935 | 9231 ft | 298 kts | 180° |
| 2026-05-09 03:48 | 30.34166 | -90.18787 | 8731 ft | 298 kts | 180° |
| 2026-05-09 03:49 | 30.32126 | -90.18970 | 8230 ft | 290 kts | 200° |
| 2026-05-09 03:49 | 30.30471 | -90.20142 | 7925 ft | 269 kts | 225° |
| 2026-05-09 03:49 | 30.29184 | -90.21614 | 7767 ft | 261 kts | 227° |
| 2026-05-09 03:49 | 30.27945 | -90.23103 | 7677 ft | 249 kts | 228° |
| 2026-05-09 03:50 | 30.26749 | -90.24562 | 7290 ft | 249 kts | 228° |
| 2026-05-09 03:50 | 30.25562 | -90.26022 | 6983 ft | 245 kts | 229° |
| 2026-05-09 03:50 | 30.24432 | -90.27416 | 6940 ft | 229 kts | 229° |
| 2026-05-09 03:50 | 30.23362 | -90.28736 | 6954 ft | 225 kts | 229° |
| 2026-05-09 03:51 | 30.22280 | -90.30065 | 6894 ft | 228 kts | 229° |
| 2026-05-09 03:51 | 30.21169 | -90.31440 | 6356 ft | 239 kts | 229° |
| 2026-05-09 03:51 | 30.20050 | -90.32844 | 5943 ft | 240 kts | 229° |
| 2026-05-09 03:51 | 30.18922 | -90.34282 | 5537 ft | 240 kts | 229° |
| 2026-05-09 03:52 | 30.17829 | -90.35706 | 5145 ft | 239 kts | 229° |
| 2026-05-09 03:52 | 30.16745 | -90.37145 | 4758 ft | 237 kts | 229° |
| 2026-05-09 03:52 | 30.15675 | -90.38595 | 4288 ft | 233 kts | 229° |
| 2026-05-09 03:52 | 30.14654 | -90.40010 | 3823 ft | 229 kts | 229° |
| 2026-05-09 03:53 | 30.13664 | -90.41416 | 3358 ft | 225 kts | 229° |
| 2026-05-09 03:53 | 30.12705 | -90.42812 | 2893 ft | 222 kts | 229° |
| 2026-05-09 03:53 | 30.11755 | -90.44236 | 2451 ft | 222 kts | 229° |
| 2026-05-09 03:53 | 30.10833 | -90.45673 | 2072 ft | 223 kts | 229° |
| 2026-05-09 03:54 | 30.09946 | -90.47089 | 1959 ft | 211 kts | 228° |
| 2026-05-09 03:54 | 30.09140 | -90.48420 | 1973 ft | 194 kts | 229° |
| 2026-05-09 03:54 | 30.08406 | -90.49651 | 1977 ft | 183 kts | 229° |
| 2026-05-09 03:54 | 30.07540 | -90.50684 | 1955 ft | 172 kts | 199° |
| 2026-05-09 03:55 | 30.06423 | -90.50735 | 1943 ft | 162 kts | 154° |
| 2026-05-09 03:55 | 30.05502 | -90.49979 | 1971 ft | 165 kts | 140° |
| 2026-05-09 03:55 | 30.04769 | -90.48954 | 1957 ft | 170 kts | 121° |
| 2026-05-09 03:55 | 30.04360 | -90.47670 | 1967 ft | 172 kts | 111° |
| 2026-05-09 03:56 | 30.04026 | -90.46328 | 1962 ft | 172 kts | 111° |
| 2026-05-09 03:56 | 30.03703 | -90.45010 | 1964 ft | 172 kts | 110° |
| 2026-05-09 03:56 | 30.03383 | -90.43687 | 1968 ft | 171 kts | 110° |
| 2026-05-09 03:56 | 30.03064 | -90.42353 | 1970 ft | 171 kts | 110° |
| 2026-05-09 03:57 | 30.02748 | -90.41035 | 1961 ft | 171 kts | 110° |
| 2026-05-09 03:57 | 30.02430 | -90.39711 | 1844 ft | 174 kts | 110° |
| 2026-05-09 03:57 | 30.02111 | -90.38371 | 1664 ft | 165 kts | 110° |
| 2026-05-09 03:57 | 30.01821 | -90.37148 | 1477 ft | 155 kts | 110° |
| 2026-05-09 03:58 | 30.01549 | -90.36008 | 1303 ft | 139 kts | 110° |
| 2026-05-09 03:58 | 30.01309 | -90.35000 | 1132 ft | 120 kts | 110° |
| 2026-05-09 03:58 | 30.01082 | -90.34063 | 1004 ft | 121 kts | 110° |
| 2026-05-09 03:58 | 30.00853 | -90.33127 | 839 ft | 121 kts | 109° |
| 2026-05-09 03:59 | 30.00633 | -90.32188 | 660 ft | 121 kts | 108° |
| 2026-05-09 03:59 | 30.00421 | -90.31239 | 537 ft | 123 kts | 108° |
| 2026-05-09 03:59 | 30.00186 | -90.30286 | 396 ft | 123 kts | 109° |
| 2026-05-09 03:59 | 29.99949 | -90.29340 | 278 ft | 126 kts | 108° |
| 2026-05-09 04:00 | 29.99710 | -90.28365 | 76 ft | 125 kts | 106° |
| 2026-05-09 04:00 | 29.99486 | -90.27443 | 8 ft | 106 kts | 104° |
| 2026-05-09 04:00 | 29.99348 | -90.26855 | 8 ft | 43 kts | 104° |
| 2026-05-09 04:00 | 29.99286 | -90.26603 | 8 ft | 19 kts | 106° |
| 2026-05-09 04:01 | 29.99305 | -90.26475 | 8 ft | 13 kts | 21° |
| 2026-05-09 04:01 | 29.99376 | -90.26450 | 8 ft | 10 kts | 18° |
| 2026-05-09 04:01 | 29.99463 | -90.26412 | 8 ft | 15 kts | 26° |
| 2026-05-09 04:01 | 29.99513 | -90.26386 | 8 ft | 9 kts | 19° |
| 2026-05-09 04:02 | 29.99590 | -90.26360 | 8 ft | 13 kts | 17° |
| 2026-05-09 04:02 | 29.99633 | -90.26359 | 8 ft | 4 kts | 333° |
| 2026-05-09 04:02 | 29.99654 | -90.26413 | 8 ft | 10 kts | 285° |
| 2026-05-09 04:02 | 29.99672 | -90.26487 | 8 ft | 5 kts | 287° |
| 2026-05-09 04:03 | 29.99707 | -90.26524 | 8 ft | 5 kts | 5° |
| 2026-05-09 04:03 | 29.99716 | -90.26522 | 8 ft | 0 kts | 13° |